createdAt,value
2023-02-25T00:01:17.930Z,1.77
2023-02-25T00:03:44.971Z,1.87
2023-02-25T00:06:13.971Z,2.13
2023-02-25T00:08:45.569Z,2.50
2023-02-25T00:11:15.306Z,2.40
2023-02-25T00:13:43.449Z,2.47
2023-02-25T00:16:11.720Z,1.80
2023-02-25T00:18:41.088Z,2.20
2023-02-25T00:21:15.416Z,2.13
2023-02-25T00:23:44.451Z,2.53
2023-02-25T00:26:11.765Z,1.90
2023-02-25T00:28:40.626Z,2.50
2023-02-25T00:31:13.726Z,2.60
2023-02-25T00:33:42.106Z,2.47
2023-02-25T00:36:15.296Z,2.33
2023-02-25T00:38:42.482Z,1.47
2023-02-25T00:41:15.237Z,2.07
2023-02-25T00:43:44.849Z,2.23
2023-02-25T00:46:12.508Z,1.13
2023-02-25T00:48:40.179Z,1.77
2023-02-25T00:51:16.186Z,1.70
2023-02-25T00:53:44.336Z,1.60
2023-02-25T00:56:15.977Z,1.40
2023-02-25T00:58:44.943Z,1.47
2023-02-25T01:01:20.496Z,1.77
2023-02-25T01:03:48.700Z,1.30
2023-02-25T01:06:15.796Z,2.03
2023-02-25T01:08:43.905Z,1.77
2023-02-25T01:11:21.243Z,2.13
2023-02-25T01:13:49.882Z,2.53
2023-02-25T01:16:20.245Z,2.63
2023-02-25T01:18:48.118Z,2.60
2023-02-25T01:21:21.222Z,2.53
2023-02-25T01:23:49.525Z,2.07
2023-02-25T01:26:16.764Z,1.97
2023-02-25T01:28:44.441Z,1.83
2023-02-25T01:31:20.483Z,2.33
2023-02-25T01:33:47.695Z,2.73
2023-02-25T01:36:14.827Z,2.23
2023-02-25T01:38:41.679Z,2.13
2023-02-25T01:41:09.314Z,2.33
2023-02-25T01:43:36.530Z,2.33
2023-02-25T01:46:03.543Z,1.73
2023-02-25T01:48:34.014Z,2.00
2023-02-25T01:51:08.038Z,2.17
2023-02-25T01:53:42.922Z,1.70
2023-02-25T01:56:12.248Z,1.43
2023-02-25T01:58:39.425Z,2.10
2023-02-25T02:01:11.200Z,2.07
2023-02-25T02:03:39.649Z,1.80
2023-02-25T02:06:24.464Z,1.57
2023-02-25T02:08:52.788Z,1.60
2023-02-25T02:11:20.144Z,1.97
2023-02-25T02:13:53.075Z,2.33
2023-02-25T02:16:57.592Z,2.00
2023-02-25T02:19:47.510Z,1.70
2023-02-25T02:22:52.325Z,2.10
2023-02-25T02:25:36.274Z,1.90
2023-02-25T02:28:06.228Z,1.60
2023-02-25T02:31:18.175Z,1.50
2023-02-25T02:34:03.199Z,1.67
2023-02-25T02:36:33.132Z,1.70
2023-02-25T02:39:30.574Z,1.80
2023-02-25T02:42:00.500Z,1.73
2023-02-25T02:44:37.195Z,2.30
2023-02-25T02:47:09.684Z,1.83
2023-02-25T02:49:43.887Z,1.77
2023-02-25T02:52:16.973Z,1.90
2023-02-25T02:54:49.862Z,1.80
2023-02-25T02:57:20.760Z,1.63
2023-02-25T02:59:54.988Z,2.17
2023-02-25T03:02:29.098Z,2.43
2023-02-25T03:05:06.485Z,1.73
2023-02-25T03:07:40.828Z,2.43
2023-02-25T03:10:14.288Z,1.93
2023-02-25T03:12:42.316Z,2.50
2023-02-25T03:15:10.732Z,1.93
2023-02-25T03:17:52.547Z,1.83
2023-02-25T03:20:40.489Z,1.67
2023-02-25T03:23:19.131Z,1.23
2023-02-25T03:25:56.431Z,1.43
2023-02-25T03:28:30.743Z,1.23
2023-02-25T03:31:01.091Z,1.00
2023-02-25T03:33:48.228Z,1.63
2023-02-25T03:36:30.692Z,1.00
2023-02-25T03:39:03.015Z,0.60
2023-02-25T03:41:37.396Z,0.83
2023-02-25T03:44:09.245Z,0.47
2023-02-25T03:46:38.027Z,0.70
2023-02-25T03:49:07.289Z,1.00
2023-02-25T03:51:40.715Z,0.90
2023-02-25T03:54:07.811Z,0.87
2023-02-25T03:56:44.248Z,0.80
2023-02-25T03:59:11.292Z,1.30
2023-02-25T04:01:41.225Z,1.33
2023-02-25T04:04:08.403Z,1.13
2023-02-25T04:06:35.288Z,1.40
2023-02-25T04:09:02.634Z,0.93
2023-02-25T04:11:31.714Z,1.37
2023-02-25T04:14:00.101Z,1.30
2023-02-25T04:16:28.084Z,1.13
2023-02-25T04:18:57.076Z,1.23
2023-02-25T04:21:35.521Z,1.00
2023-02-25T04:24:03.708Z,1.17
2023-02-25T04:26:30.517Z,1.10
2023-02-25T04:28:57.440Z,0.90
2023-02-25T04:31:24.679Z,1.00
2023-02-25T04:33:51.585Z,1.00
2023-02-25T04:36:35.551Z,1.60
2023-02-25T04:39:05.164Z,1.20
2023-02-25T04:41:35.511Z,1.33
2023-02-25T04:44:05.908Z,0.80
2023-02-25T04:46:35.268Z,0.90
2023-02-25T04:49:02.805Z,1.30
2023-02-25T04:51:29.969Z,1.13
2023-02-25T04:53:57.371Z,1.00
2023-02-25T04:56:24.683Z,1.30
2023-02-25T04:58:51.825Z,1.00
2023-02-25T05:01:18.900Z,0.73
2023-02-25T05:03:45.756Z,1.30
2023-02-25T05:06:12.775Z,1.03
2023-02-25T05:08:39.680Z,1.10
2023-02-25T05:11:07.076Z,1.20
2023-02-25T05:13:34.122Z,1.07
2023-02-25T05:16:09.558Z,0.80
2023-02-25T05:18:38.463Z,1.17
2023-02-25T05:21:09.578Z,0.63
2023-02-25T05:23:36.671Z,0.83
2023-02-25T05:26:04.005Z,1.03
2023-02-25T05:28:31.065Z,1.07
2023-02-25T05:30:58.546Z,1.03
2023-02-25T05:33:27.205Z,0.90
2023-02-25T05:35:54.050Z,0.60
2023-02-25T05:38:20.829Z,0.40
2023-02-25T05:40:49.955Z,0.37
2023-02-25T05:43:17.322Z,0.30
2023-02-25T05:45:44.172Z,0.40
2023-02-25T05:48:11.128Z,0.20
2023-02-25T05:50:41.716Z,0.40
2023-02-25T05:53:10.889Z,0.37
2023-02-25T05:55:45.948Z,0.40
2023-02-25T05:58:13.470Z,0.53
2023-02-25T06:00:40.376Z,0.67
2023-02-25T06:03:07.397Z,0.47
2023-02-25T06:05:34.265Z,0.30
2023-02-25T06:08:01.359Z,0.60
2023-02-25T06:10:28.500Z,0.30
2023-02-25T06:12:55.347Z,0.30
2023-02-25T06:15:22.209Z,0.37
2023-02-25T06:17:50.276Z,0.30
2023-02-25T06:20:18.189Z,0.23
2023-02-25T06:22:45.029Z,0.30
2023-02-25T06:25:12.050Z,0.30
2023-02-25T06:27:38.878Z,0.40
2023-02-25T06:30:06.151Z,0.50
2023-02-25T06:32:33.247Z,0.30
2023-02-25T06:35:00.198Z,0.70
2023-02-25T06:37:27.134Z,0.80
2023-02-25T06:39:54.639Z,0.60
2023-02-25T06:42:21.601Z,0.73
2023-02-25T06:44:48.582Z,0.93
2023-02-25T06:47:15.732Z,0.80
2023-02-25T06:49:42.587Z,0.80
2023-02-25T06:52:09.744Z,0.80
2023-02-25T06:54:36.923Z,0.80
2023-02-25T06:57:04.465Z,0.60
2023-02-25T06:59:31.385Z,0.80
2023-02-25T07:01:58.687Z,0.90
2023-02-25T07:04:25.567Z,0.60
2023-02-25T07:06:52.463Z,0.60
2023-02-25T07:09:19.545Z,0.60
2023-02-25T07:11:46.386Z,0.90
2023-02-25T07:14:16.352Z,0.73
2023-02-25T07:16:43.361Z,0.63
2023-02-25T07:19:10.226Z,0.83
2023-02-25T07:21:38.307Z,0.73
2023-02-25T07:24:08.074Z,0.80
2023-02-25T07:26:35.360Z,0.50
2023-02-25T07:29:02.772Z,1.00
2023-02-25T07:31:30.300Z,0.73
2023-02-25T07:34:00.028Z,0.80
2023-02-25T07:36:28.597Z,1.03
2023-02-25T07:38:55.697Z,0.90
2023-02-25T07:41:23.412Z,1.00
2023-02-25T07:43:50.715Z,1.20
2023-02-25T07:46:17.725Z,1.03
2023-02-25T07:48:44.569Z,0.90
2023-02-25T07:51:18.763Z,1.23
2023-02-25T07:53:46.806Z,0.90
2023-02-25T07:56:14.568Z,1.30
2023-02-25T07:58:41.762Z,0.90
2023-02-25T08:01:29.434Z,1.27
2023-02-25T08:03:59.176Z,1.00
2023-02-25T08:06:27.235Z,0.80
2023-02-25T08:08:55.499Z,0.90
2023-02-25T08:11:25.021Z,0.63
2023-02-25T08:13:52.181Z,0.70
2023-02-25T08:16:21.476Z,0.80
2023-02-25T08:18:48.974Z,1.20
2023-02-25T08:21:18.695Z,0.80
2023-02-25T08:23:45.670Z,0.80
2023-02-25T08:26:12.852Z,0.83
2023-02-25T08:28:41.391Z,1.00
2023-02-25T08:31:12.193Z,0.87
2023-02-25T08:33:45.691Z,0.73
2023-02-25T08:36:17.064Z,0.77
2023-02-25T08:38:45.193Z,0.80
2023-02-25T08:41:12.976Z,0.77
2023-02-25T08:43:41.020Z,0.73
2023-02-25T08:46:08.381Z,0.90
2023-02-25T08:48:36.733Z,1.00
2023-02-25T08:51:11.577Z,0.87
2023-02-25T08:53:40.214Z,0.70
2023-02-25T08:56:08.558Z,0.93
2023-02-25T08:58:36.944Z,1.13
2023-02-25T09:01:14.327Z,1.20
2023-02-25T09:03:53.333Z,0.90
2023-02-25T09:06:23.506Z,0.80
2023-02-25T09:08:51.835Z,1.30
2023-02-25T09:11:19.833Z,1.10
2023-02-25T09:13:46.739Z,0.90
2023-02-25T09:16:17.422Z,0.87
2023-02-25T09:18:49.348Z,1.00
2023-02-25T09:21:16.430Z,0.90
2023-02-25T09:23:43.718Z,0.90
2023-02-25T09:26:10.821Z,1.10
2023-02-25T09:28:37.851Z,1.30
2023-02-25T09:31:05.018Z,0.80
2023-02-25T09:33:33.263Z,0.97
2023-02-25T09:36:21.209Z,1.07
2023-02-25T09:38:49.953Z,1.20
2023-02-25T09:41:20.834Z,1.10
2023-02-25T09:44:00.979Z,0.67
2023-02-25T09:46:30.872Z,1.40
2023-02-25T09:49:06.195Z,1.27
2023-02-25T09:51:38.197Z,1.13
2023-02-25T09:54:19.677Z,1.10
2023-02-25T09:56:47.166Z,0.77
2023-02-25T09:59:16.493Z,0.73
2023-02-25T10:01:54.330Z,1.40
2023-02-25T10:04:38.226Z,1.10
2023-02-25T10:07:19.304Z,1.10
2023-02-25T10:10:08.259Z,1.00
2023-02-25T10:12:42.247Z,1.27
2023-02-25T10:15:31.728Z,1.10
2023-02-25T10:18:05.042Z,1.23
2023-02-25T10:20:35.367Z,0.93
2023-02-25T10:23:14.403Z,1.30
2023-02-25T10:25:52.429Z,1.00
2023-02-25T10:28:21.327Z,1.00
2023-02-25T10:30:58.347Z,1.20
2023-02-25T10:33:27.591Z,1.30
2023-02-25T10:36:03.049Z,1.40
2023-02-25T10:38:30.100Z,1.30
2023-02-25T10:40:58.998Z,1.13
2023-02-25T10:43:27.170Z,1.10
2023-02-25T10:46:20.916Z,1.10
2023-02-25T10:49:01.015Z,1.10
2023-02-25T10:51:29.816Z,0.70
2023-02-25T10:53:56.796Z,1.00
2023-02-25T10:56:44.558Z,0.83
2023-02-25T10:59:40.051Z,1.00
2023-02-25T11:02:41.239Z,0.83
2023-02-25T11:05:36.131Z,1.00
2023-02-25T11:08:07.979Z,1.10
2023-02-25T11:10:35.246Z,1.03
2023-02-25T11:13:03.613Z,1.20
2023-02-25T11:15:45.129Z,1.80
2023-02-25T11:18:27.597Z,1.23
2023-02-25T11:21:13.670Z,1.30
2023-02-25T11:23:43.582Z,0.87
2023-02-25T11:26:28.878Z,0.93
2023-02-25T11:28:59.370Z,0.87
2023-02-25T11:31:33.547Z,1.20
2023-02-25T11:34:07.170Z,0.93
2023-02-25T11:36:37.862Z,1.27
2023-02-25T11:39:18.365Z,1.00
2023-02-25T11:41:47.739Z,1.00
2023-02-25T11:44:31.929Z,1.07
2023-02-25T11:47:21.022Z,0.90
2023-02-25T11:49:59.828Z,0.97
2023-02-25T11:53:02.027Z,0.93
2023-02-25T11:55:59.790Z,1.20
2023-02-25T11:58:46.080Z,1.03
2023-02-25T12:01:34.914Z,0.93
2023-02-25T12:04:20.152Z,0.93
2023-02-25T12:06:57.195Z,0.97
2023-02-25T12:09:43.002Z,0.90
2023-02-25T12:12:32.123Z,0.80
2023-02-25T12:15:20.034Z,0.90
2023-02-25T12:17:49.742Z,1.00
2023-02-25T12:20:25.994Z,0.80
2023-02-25T12:23:11.525Z,1.30
2023-02-25T12:25:47.376Z,0.90
2023-02-25T12:28:40.994Z,1.00
2023-02-25T12:31:13.863Z,1.17
2023-02-25T12:33:50.039Z,1.13
2023-02-25T12:36:38.676Z,0.80
2023-02-25T12:39:23.670Z,1.20
2023-02-25T12:42:38.074Z,1.27
2023-02-25T12:45:50.314Z,1.10
2023-02-25T12:48:30.863Z,0.90
2023-02-25T12:51:04.231Z,0.80
2023-02-25T12:53:39.971Z,0.90
2023-02-25T12:56:28.470Z,0.73
2023-02-25T12:59:32.597Z,0.83
2023-02-25T13:02:18.368Z,0.70
2023-02-25T13:05:02.811Z,1.07
2023-02-25T13:08:06.895Z,0.67
2023-02-25T13:10:36.713Z,0.97
2023-02-25T13:13:11.704Z,1.00
2023-02-25T13:15:44.291Z,1.07
2023-02-25T13:18:33.039Z,1.00
2023-02-25T13:21:29.939Z,0.90
2023-02-25T13:24:26.300Z,1.10
2023-02-25T13:27:19.002Z,0.80
2023-02-25T13:30:01.169Z,1.23
2023-02-25T13:32:50.167Z,1.27
2023-02-25T13:35:29.857Z,0.77
2023-02-25T13:38:03.892Z,0.80
2023-02-25T13:40:30.768Z,0.80
2023-02-25T13:43:31.896Z,0.80
2023-02-25T13:46:02.421Z,1.77
2023-02-25T13:48:43.399Z,1.00
2023-02-25T13:51:16.659Z,1.07
2023-02-25T13:54:19.982Z,0.80
2023-02-25T13:57:12.415Z,0.70
2023-02-25T14:00:04.227Z,0.63
2023-02-25T14:02:57.410Z,0.73
2023-02-25T14:05:59.915Z,0.87
2023-02-25T14:08:53.868Z,0.90
2023-02-25T14:11:43.671Z,1.00
2023-02-25T14:14:47.664Z,0.73
2023-02-25T14:17:39.135Z,1.00
2023-02-25T14:20:18.637Z,1.03
2023-02-25T14:23:08.335Z,1.10
2023-02-25T14:26:08.918Z,1.20
2023-02-25T14:29:09.253Z,0.90
2023-02-25T14:31:47.735Z,1.10
2023-02-25T14:34:46.083Z,1.10
2023-02-25T14:37:25.209Z,0.90
2023-02-25T14:40:23.172Z,1.23
2023-02-25T14:43:03.379Z,1.00
2023-02-25T14:45:39.416Z,0.97
2023-02-25T14:48:23.773Z,1.27
2023-02-25T14:51:13.141Z,1.03
2023-02-25T14:54:04.699Z,1.10
2023-02-25T14:57:12.665Z,0.70
2023-02-25T15:00:06.523Z,0.67
2023-02-25T15:02:48.446Z,0.63
2023-02-25T15:06:10.717Z,0.83
2023-02-25T15:09:02.975Z,0.83
2023-02-25T15:11:38.582Z,0.60
2023-02-25T15:14:26.882Z,0.70
2023-02-25T15:17:02.883Z,0.70
2023-02-25T15:20:07.273Z,1.20
2023-02-25T15:22:34.336Z,0.80
2023-02-25T15:25:20.124Z,0.83
2023-02-25T15:27:56.900Z,0.80
2023-02-25T15:30:25.969Z,0.80
2023-02-25T15:33:22.978Z,0.80
2023-02-25T15:35:50.022Z,0.80
2023-02-25T15:38:47.918Z,0.80
2023-02-25T15:41:26.911Z,1.10
2023-02-25T15:43:57.422Z,0.93
2023-02-25T15:46:50.400Z,0.93
2023-02-25T15:49:17.248Z,1.00
2023-02-25T15:51:49.607Z,0.80
2023-02-25T15:54:29.003Z,0.63
2023-02-25T15:57:01.564Z,0.57
2023-02-25T15:59:43.713Z,0.70
2023-02-25T16:02:35.074Z,0.60
2023-02-25T16:05:08.236Z,1.07
2023-02-25T16:07:39.190Z,0.90
2023-02-25T16:10:18.572Z,1.00
2023-02-25T16:12:49.618Z,0.80
2023-02-25T16:15:25.797Z,1.00
2023-02-25T16:17:55.542Z,0.80
2023-02-25T16:20:33.831Z,1.00
2023-02-25T16:23:01.204Z,0.80
2023-02-25T16:25:46.930Z,0.77
2023-02-25T16:28:25.069Z,0.60
2023-02-25T16:31:14.973Z,0.70
2023-02-25T16:34:25.874Z,0.60
2023-02-25T16:36:52.821Z,0.80
2023-02-25T16:39:26.558Z,0.60
2023-02-25T16:41:55.357Z,0.90
2023-02-25T16:44:30.130Z,0.57
2023-02-25T16:46:57.405Z,0.77
2023-02-25T16:49:31.841Z,1.03
2023-02-25T16:51:59.909Z,0.90
2023-02-25T16:54:33.380Z,0.80
2023-02-25T16:57:04.283Z,0.93
2023-02-25T16:59:33.908Z,0.97
2023-02-25T17:02:20.405Z,0.80
2023-02-25T17:04:52.896Z,0.80
2023-02-25T17:07:25.894Z,1.13
2023-02-25T17:10:02.067Z,1.10
2023-02-25T17:12:32.085Z,0.70
2023-02-25T17:15:01.917Z,0.80
2023-02-25T17:17:35.879Z,0.97
2023-02-25T17:20:06.367Z,0.60
2023-02-25T17:22:35.343Z,0.83
2023-02-25T17:25:04.143Z,0.73
2023-02-25T17:27:31.251Z,0.43
2023-02-25T17:29:58.413Z,0.57
2023-02-25T17:32:30.463Z,0.70
2023-02-25T17:35:02.724Z,0.63
2023-02-25T17:37:31.664Z,1.13
2023-02-25T17:40:01.021Z,1.30
2023-02-25T17:42:33.118Z,1.20
2023-02-25T17:45:01.772Z,0.60
2023-02-25T17:47:32.875Z,0.70
2023-02-25T17:50:27.157Z,1.17
2023-02-25T17:52:54.325Z,0.80
2023-02-25T17:55:34.052Z,0.67
2023-02-25T17:58:02.615Z,0.73
2023-02-25T18:00:35.847Z,0.50
2023-02-25T18:03:24.801Z,0.50
2023-02-25T18:06:00.931Z,0.50
2023-02-25T18:08:49.882Z,0.90
2023-02-25T18:11:37.984Z,0.40
2023-02-25T18:14:30.457Z,0.90
2023-02-25T18:16:58.205Z,0.67
2023-02-25T18:19:37.574Z,0.60
2023-02-25T18:22:07.779Z,0.90
2023-02-25T18:24:37.784Z,0.70
2023-02-25T18:27:22.191Z,1.17
2023-02-25T18:29:49.248Z,0.90
2023-02-25T18:32:16.210Z,1.13
2023-02-25T18:34:43.373Z,1.00
2023-02-25T18:37:14.246Z,0.90
2023-02-25T18:39:41.307Z,0.67
2023-02-25T18:42:14.368Z,0.67
2023-02-25T18:44:41.454Z,0.77
2023-02-25T18:47:11.307Z,0.50
2023-02-25T18:49:39.836Z,0.57
2023-02-25T18:52:16.733Z,0.40
2023-02-25T18:54:43.730Z,0.63
2023-02-25T18:57:23.134Z,0.50
2023-02-25T18:59:52.198Z,0.57
2023-02-25T19:02:48.586Z,0.43
2023-02-25T19:05:17.444Z,0.30
2023-02-25T19:07:44.753Z,0.70
2023-02-25T19:10:16.083Z,0.70
2023-02-25T19:12:43.300Z,0.63
2023-02-25T19:15:15.029Z,0.60
2023-02-25T19:17:42.288Z,0.53
2023-02-25T19:20:12.791Z,0.63
2023-02-25T19:22:48.567Z,0.60
2023-02-25T19:25:21.517Z,0.80
2023-02-25T19:27:51.475Z,0.60
2023-02-25T19:30:21.904Z,0.40
2023-02-25T19:32:49.237Z,0.50
2023-02-25T19:35:19.991Z,0.50
2023-02-25T19:37:48.928Z,0.87
2023-02-25T19:40:16.710Z,0.40
2023-02-25T19:42:44.910Z,0.50
2023-02-25T19:45:15.952Z,0.43
2023-02-25T19:47:44.313Z,0.40
2023-02-25T19:50:11.979Z,0.53
2023-02-25T19:52:39.624Z,0.33
2023-02-25T19:55:07.535Z,0.70
2023-02-25T19:57:35.885Z,0.53
2023-02-25T20:00:08.690Z,0.50
2023-02-25T20:02:39.361Z,0.77
2023-02-25T20:05:07.455Z,0.80
2023-02-25T20:07:34.720Z,0.90
2023-02-25T20:10:01.901Z,0.90
2023-02-25T20:12:28.998Z,0.57
2023-02-25T20:14:57.100Z,0.60
2023-02-25T20:17:25.163Z,0.70
2023-02-25T20:19:53.258Z,0.90
2023-02-25T20:22:23.733Z,0.47
2023-02-25T20:24:51.143Z,0.50
2023-02-25T20:27:18.531Z,0.50
2023-02-25T20:29:45.523Z,0.37
2023-02-25T20:32:12.725Z,0.50
2023-02-25T20:34:40.023Z,0.60
2023-02-25T20:37:14.858Z,0.53
2023-02-25T20:39:49.622Z,0.50
2023-02-25T20:42:21.166Z,0.50
2023-02-25T20:44:51.441Z,0.47
2023-02-25T20:47:31.003Z,0.37
2023-02-25T20:49:58.926Z,0.40
2023-02-25T20:52:28.556Z,0.60
2023-02-25T20:54:56.194Z,0.40
2023-02-25T20:57:24.867Z,0.70
2023-02-25T20:59:52.706Z,0.33
2023-02-25T21:02:20.342Z,0.50
2023-02-25T21:04:47.326Z,0.70
2023-02-25T21:07:14.544Z,0.50
2023-02-25T21:09:41.546Z,0.70
2023-02-25T21:12:08.713Z,0.53
2023-02-25T21:14:35.607Z,0.50
2023-02-25T21:17:03.274Z,0.40
2023-02-25T21:19:30.416Z,0.40
2023-02-25T21:21:57.363Z,0.43
2023-02-25T21:24:24.502Z,0.43
2023-02-25T21:26:51.437Z,0.60
2023-02-25T21:29:18.318Z,0.50
2023-02-25T21:31:45.855Z,0.50
2023-02-25T21:34:14.859Z,0.80
2023-02-25T21:36:42.349Z,0.27
2023-02-25T21:39:10.199Z,0.60
2023-02-25T21:41:44.328Z,1.00
2023-02-25T21:44:12.701Z,0.70
2023-02-25T21:46:40.326Z,0.70
2023-02-25T21:49:10.711Z,0.80
2023-02-25T21:51:40.332Z,0.60
2023-02-25T21:54:07.903Z,0.83
2023-02-25T21:56:35.476Z,0.70
2023-02-25T21:59:05.497Z,1.00
2023-02-25T22:01:38.675Z,0.57
2023-02-25T22:04:06.082Z,0.80
2023-02-25T22:06:33.189Z,0.70
2023-02-25T22:09:00.508Z,0.70
2023-02-25T22:11:30.446Z,0.97
2023-02-25T22:13:59.917Z,0.90
2023-02-25T22:16:27.787Z,1.00
2023-02-25T22:18:55.609Z,0.60
2023-02-25T22:21:25.203Z,1.10
2023-02-25T22:23:54.409Z,1.03
2023-02-25T22:26:23.855Z,0.70
2023-02-25T22:28:55.824Z,1.10
2023-02-25T22:31:23.507Z,0.70
2023-02-25T22:33:50.845Z,0.63
2023-02-25T22:36:18.651Z,1.00
2023-02-25T22:38:47.476Z,0.90
2023-02-25T22:41:23.280Z,0.90
2023-02-25T22:43:50.948Z,1.03
2023-02-25T22:46:21.037Z,0.70
2023-02-25T22:48:49.354Z,0.70
2023-02-25T22:51:29.898Z,1.07
2023-02-25T22:53:57.701Z,0.97
2023-02-25T22:56:25.873Z,0.67
2023-02-25T22:58:53.674Z,0.40
2023-02-25T23:01:23.331Z,0.73
2023-02-25T23:03:51.815Z,0.70
2023-02-25T23:06:21.294Z,0.67
2023-02-25T23:08:49.699Z,0.73
2023-02-25T23:11:23.222Z,0.60
2023-02-25T23:13:52.875Z,0.67
2023-02-25T23:16:28.352Z,0.80
2023-02-25T23:18:58.140Z,0.60
2023-02-25T23:21:28.262Z,0.60
2023-02-25T23:23:57.726Z,0.60
2023-02-25T23:26:27.698Z,0.67
2023-02-25T23:28:59.248Z,0.50
2023-02-25T23:31:30.146Z,0.50
2023-02-25T23:33:59.344Z,0.60
2023-02-25T23:36:27.559Z,0.60
2023-02-25T23:38:56.106Z,0.70
2023-02-25T23:41:23.066Z,0.60
2023-02-25T23:43:54.201Z,0.50
2023-02-25T23:46:22.056Z,0.60
2023-02-25T23:48:49.109Z,0.67
2023-02-25T23:51:16.291Z,0.50
2023-02-25T23:53:43.177Z,0.60
2023-02-25T23:56:11.947Z,0.80
2023-02-25T23:58:39.061Z,0.60
